Time,TemperatureF,DewpointF,PressureIn,WindDirection,WindDirectionDegrees,WindSpeedMPH,WindSpeedGustMPH,Humidity,HourlyPrecipIn,Conditions,Clouds,dailyrainin,SoftwareType,DateUTC
2013-02-12 00:13:00,47.8,29.7,29.75,WSW,248,6.0,8.0,49,0.00,,,0.00,meteohub,2013-02-11 23:13:00,
2013-02-12 00:27:00,48.2,30.4,29.75,WNW,293,5.0,13.0,49,0.00,,,0.00,meteohub,2013-02-11 23:27:00,
2013-02-12 00:43:00,47.8,31.8,29.75,West,270,6.0,12.0,53,0.00,,,0.00,meteohub,2013-02-11 23:43:00,
2013-02-12 00:58:00,48.0,31.6,29.75,West,270,6.0,15.0,53,0.00,,,0.00,meteohub,2013-02-11 23:58:00,
2013-02-12 01:14:00,47.8,32.5,29.74,West,270,5.0,17.0,55,0.00,,,0.00,meteohub,2013-02-12 00:14:00,
2013-02-12 01:29:00,48.0,33.1,29.74,West,270,7.0,14.0,56,0.00,,,0.00,meteohub,2013-02-12 00:29:00,
2013-02-12 01:44:00,48.6,33.8,29.73,WSW,248,7.0,16.0,56,0.00,,,0.00,meteohub,2013-02-12 00:44:00,
2013-02-12 01:59:00,48.0,34.0,29.73,WSW,248,6.0,13.0,58,0.00,,,0.00,meteohub,2013-02-12 00:59:00,
2013-02-12 02:15:00,47.8,33.1,29.73,WSW,248,7.0,11.0,56,0.00,,,0.00,meteohub,2013-02-12 01:15:00,
2013-02-12 02:29:00,47.8,32.5,29.73,WSW,248,6.0,11.0,55,0.00,,,0.00,meteohub,2013-02-12 01:29:00,
2013-02-12 02:45:00,47.7,31.5,29.73,WSW,248,6.0,10.0,53,0.00,,,0.00,meteohub,2013-02-12 01:45:00,
2013-02-12 03:01:00,47.7,31.5,29.73,WSW,248,5.0,9.0,53,0.00,,,0.00,meteohub,2013-02-12 02:01:00,
2013-02-12 03:16:00,47.3,33.3,29.73,West,270,6.0,10.0,58,0.00,,,0.00,meteohub,2013-02-12 02:16:00,
2013-02-12 03:32:00,47.5,33.8,29.72,WSW,248,5.0,8.0,59,0.00,,,0.00,meteohub,2013-02-12 02:32:00,
2013-02-12 03:47:00,47.5,34.3,29.71,WSW,248,5.0,10.0,60,0.00,,,0.00,meteohub,2013-02-12 02:47:00,
2013-02-12 04:02:00,47.5,34.7,29.71,WSW,248,5.0,9.0,61,0.00,,,0.00,meteohub,2013-02-12 03:02:00,
2013-02-12 04:17:00,48.0,33.4,29.70,WSW,248,8.0,14.0,57,0.00,,,0.00,meteohub,2013-02-12 03:17:00,
2013-02-12 04:32:00,48.6,33.3,29.69,WSW,248,5.0,8.0,55,0.00,,,0.00,meteohub,2013-02-12 03:32:00,
2013-02-12 04:48:00,49.1,31.8,29.69,West,270,7.0,18.0,51,0.00,,,0.00,meteohub,2013-02-12 03:48:00,
2013-02-12 05:03:00,49.3,31.6,29.69,WSW,248,6.0,13.0,50,0.00,,,0.00,meteohub,2013-02-12 04:03:00,
2013-02-12 05:19:00,49.3,31.6,29.69,WSW,248,6.0,-999.0,50,0.00,,,0.00,meteohub,2013-02-12 04:19:00,
2013-02-12 08:37:00,43.9,35.4,29.70,NNW,338,5.0,23.0,72,0.06,,,0.06,meteohub,2013-02-12 07:37:00,
2013-02-12 08:53:00,44.8,35.2,29.70,NW,315,12.0,25.0,68,0.06,,,0.06,meteohub,2013-02-12 07:53:00,
2013-02-12 09:08:00,45.7,35.4,29.71,NW,315,11.0,-999.0,67,0.06,,,0.06,meteohub,2013-02-12 08:08:00,
2013-02-12 09:24:00,45.7,36.1,29.72,NW,315,11.0,23.0,69,0.02,,,0.06,meteohub,2013-02-12 08:24:00,
2013-02-12 09:39:00,45.5,36.5,29.72,NW,315,10.0,22.0,70,0.01,,,0.07,meteohub,2013-02-12 08:39:00,
2013-02-12 09:54:00,43.3,36.9,29.74,NNW,338,6.0,19.0,77,0.06,,,0.13,meteohub,2013-02-12 08:54:00,
2013-02-12 10:10:00,42.3,37.6,29.73,NNW,338,3.0,8.0,83,0.07,,,0.13,meteohub,2013-02-12 09:10:00,
2013-02-12 10:25:00,43.9,38.5,29.74,NNE,23,5.0,10.0,81,0.07,,,0.13,meteohub,2013-02-12 09:25:00,
2013-02-12 10:40:00,45.1,38.8,29.75,NNW,338,3.0,6.0,78,0.06,,,0.13,meteohub,2013-02-12 09:40:00,
2013-02-12 10:56:00,44.4,37.9,29.78,NNE,23,2.0,7.0,77,0.00,,,0.13,meteohub,2013-02-12 09:56:00,
2013-02-12 11:11:00,47.1,38.5,29.78,North,0,6.0,10.0,71,0.00,,,0.13,meteohub,2013-02-12 10:11:00,
2013-02-12 11:26:00,48.0,37.6,29.79,North,0,7.0,13.0,67,0.00,,,0.13,meteohub,2013-02-12 10:26:00,
2013-02-12 11:42:00,46.9,38.7,29.79,North,0,6.0,10.0,73,0.01,,,0.14,meteohub,2013-02-12 10:42:00,
2013-02-12 11:58:00,47.8,38.7,29.80,North,0,6.0,11.0,70,0.01,,,0.14,meteohub,2013-02-12 10:58:00,
2013-02-12 12:14:00,46.9,38.1,29.82,North,0,6.0,14.0,71,0.01,,,0.14,meteohub,2013-02-12 11:14:00,
2013-02-12 12:29:00,45.7,39.0,29.83,NNE,23,6.0,15.0,77,0.01,,,0.15,meteohub,2013-02-12 11:29:00,
2013-02-12 12:45:00,45.1,38.1,29.83,North,0,3.0,6.0,76,0.01,,,0.15,meteohub,2013-02-12 11:45:00,
2013-02-12 13:01:00,46.0,38.1,29.83,NNW,338,2.0,6.0,73,0.01,,,0.15,meteohub,2013-02-12 12:01:00,
2013-02-12 13:16:00,47.8,37.9,29.84,East,90,3.0,8.0,68,0.00,,,0.15,meteohub,2013-02-12 12:16:00,
2013-02-12 13:31:00,48.6,37.8,29.84,NE,45,2.0,6.0,66,0.00,,,0.15,meteohub,2013-02-12 12:31:00,
2013-02-12 13:47:00,49.5,35.4,29.85,NNE,23,4.0,13.0,58,0.00,,,0.15,meteohub,2013-02-12 12:47:00,
2013-02-12 14:02:00,50.2,36.0,29.86,NW,315,1.0,3.0,58,0.00,,,0.15,meteohub,2013-02-12 13:02:00,
2013-02-12 14:18:00,50.5,32.5,29.86,NE,45,9.0,18.0,49,0.00,,,0.15,meteohub,2013-02-12 13:18:00,
2013-02-12 14:33:00,50.5,33.6,29.86,NNE,23,6.0,12.0,51,0.00,,,0.15,meteohub,2013-02-12 13:33:00,
2013-02-12 14:48:00,50.2,34.2,29.87,North,0,4.0,15.0,54,0.00,,,0.15,meteohub,2013-02-12 13:48:00,
2013-02-12 15:04:00,50.4,34.3,29.87,North,0,6.0,14.0,54,0.00,,,0.15,meteohub,2013-02-12 14:04:00,
2013-02-12 15:19:00,51.3,34.7,29.87,NNE,23,6.0,14.0,53,0.00,,,0.15,meteohub,2013-02-12 14:19:00,
2013-02-12 15:35:00,49.6,33.8,29.88,NNE,23,6.0,13.0,54,0.00,,,0.15,meteohub,2013-02-12 14:35:00,
2013-02-12 15:50:00,50.4,34.9,29.88,North,0,4.0,8.0,54,0.00,,,0.15,meteohub,2013-02-12 14:50:00,
2013-02-12 16:05:00,51.6,34.3,29.89,NW,315,5.0,10.0,51,0.00,,,0.15,meteohub,2013-02-12 15:05:00,
2013-02-12 16:21:00,51.1,34.9,29.90,NW,315,4.0,9.0,53,0.00,,,0.15,meteohub,2013-02-12 15:21:00,
2013-02-12 16:36:00,51.3,36.0,29.90,West,270,3.0,8.0,55,0.00,,,0.15,meteohub,2013-02-12 15:36:00,
2013-02-12 16:52:00,50.9,36.1,29.91,WNW,293,5.0,12.0,57,0.00,,,0.15,meteohub,2013-02-12 15:52:00,
2013-02-12 17:07:00,50.2,35.4,29.91,WNW,293,6.0,13.0,56,0.00,,,0.15,meteohub,2013-02-12 16:07:00,
2013-02-12 17:23:00,50.2,35.1,29.91,West,270,5.0,13.0,56,0.00,,,0.15,meteohub,2013-02-12 16:23:00,
2013-02-12 17:38:00,50.0,36.1,29.91,West,270,5.0,11.0,58,0.00,,,0.15,meteohub,2013-02-12 16:38:00,
2013-02-12 17:54:00,49.6,36.7,29.91,West,270,4.0,10.0,61,0.00,,,0.15,meteohub,2013-02-12 16:54:00,
2013-02-12 18:10:00,48.9,37.2,29.91,WNW,293,5.0,9.0,63,0.00,,,0.15,meteohub,2013-02-12 17:10:00,
2013-02-12 18:25:00,47.8,37.2,29.92,West,270,2.0,7.0,66,0.00,,,0.15,meteohub,2013-02-12 17:25:00,
2013-02-12 18:40:00,47.1,36.7,29.92,WSW,248,2.0,7.0,67,0.00,,,0.15,meteohub,2013-02-12 17:40:00,
2013-02-12 18:56:00,46.9,37.4,29.93,WSW,248,1.0,5.0,69,0.00,,,0.15,meteohub,2013-02-12 17:56:00,
2013-02-12 19:11:00,46.8,37.6,29.93,WSW,248,2.0,5.0,70,0.00,,,0.15,meteohub,2013-02-12 18:11:00,
2013-02-12 19:27:00,46.2,37.8,29.94,WSW,248,2.0,5.0,72,0.00,,,0.15,meteohub,2013-02-12 18:27:00,
2013-02-12 19:42:00,45.9,37.4,29.94,SW,225,4.0,8.0,72,0.00,,,0.15,meteohub,2013-02-12 18:42:00,
2013-02-12 19:59:00,46.8,37.6,29.94,West,270,3.0,6.0,69,0.00,,,0.15,meteohub,2013-02-12 18:59:00,
2013-02-12 20:14:00,46.9,37.4,29.94,WSW,248,3.0,8.0,69,0.00,,,0.15,meteohub,2013-02-12 19:14:00,
2013-02-12 20:31:00,46.8,37.6,29.95,SSW,203,1.0,3.0,70,0.00,,,0.15,meteohub,2013-02-12 19:31:00,
2013-02-12 20:46:00,46.0,37.4,29.96,SW,225,1.0,3.0,71,0.00,,,0.15,meteohub,2013-02-12 19:46:00,
2013-02-12 21:01:00,45.7,37.4,29.97,SW,225,2.0,5.0,72,0.00,,,0.15,meteohub,2013-02-12 20:01:00,
2013-02-12 21:17:00,46.8,37.6,29.98,WSW,248,1.0,5.0,70,0.00,,,0.15,meteohub,2013-02-12 20:17:00,
2013-02-12 21:32:00,46.6,37.8,29.98,NNE,23,1.0,4.0,71,0.00,,,0.15,meteohub,2013-02-12 20:32:00,
2013-02-12 21:48:00,46.2,37.8,29.98,SSW,203,0.0,2.0,72,0.00,,,0.15,meteohub,2013-02-12 20:48:00,
2013-02-12 22:04:00,46.2,38.1,29.99,NW,315,1.0,4.0,73,0.00,,,0.15,meteohub,2013-02-12 21:04:00,
2013-02-12 22:19:00,46.0,38.3,29.98,NW,315,1.0,3.0,74,0.00,,,0.15,meteohub,2013-02-12 21:19:00,
2013-02-12 22:34:00,46.0,38.3,29.98,WNW,293,1.0,4.0,74,0.00,,,0.15,meteohub,2013-02-12 21:34:00,
2013-02-12 22:50:00,46.8,38.5,29.99,WNW,293,4.0,7.0,72,0.00,,,0.15,meteohub,2013-02-12 21:50:00,
2013-02-12 23:05:00,47.1,38.5,29.99,WNW,293,2.0,5.0,72,0.00,,,0.15,meteohub,2013-02-12 22:05:00,
2013-02-12 23:21:00,47.1,38.5,30.00,WNW,293,1.0,3.0,72,0.00,,,0.15,meteohub,2013-02-12 22:21:00,
2013-02-12 23:36:00,47.5,39.2,30.00,West,270,4.0,6.0,73,0.00,,,0.15,meteohub,2013-02-12 22:36:00,
2013-02-12 23:52:00,47.7,39.6,29.99,West,270,0.0,2.0,73,0.00,,,0.15,meteohub,2013-02-12 22:52:00,